WJA334 CYVR-CYXS
Flight info
| Callsign | WJA334 |
|---|---|
| Flight time | 0h 52m |
| Altitude | 27000 |
| Route | GRG8/26L GARRE DCT SEATN DCT YWL DCT YXS |
| Aircraft | B738/M-SDE2E3FGHIRWXY/LB1 |
Departure
| Time | 2026-05-08 02:24 |
|---|---|
| Airport | Vancouver International Airport (CYVR) |
Arrival
| Time | 2026-05-08 03:16 |
|---|---|
| Airport | Prince George (International) Airport (CYXS) |
| Time | Latitude | Longitude | Altitude | Speed | Heading |
|---|---|---|---|---|---|
| 2026-05-08 02:07 | 49.19188 | -123.18406 | 9 ft | 0 kts | 21° |
| 2026-05-08 02:13 | 49.19180 | -123.18410 | 9 ft | 2 kts | 21° |
| 2026-05-08 02:13 | 49.19164 | -123.18420 | 9 ft | 3 kts | 10° |
| 2026-05-08 02:13 | 49.19143 | -123.18424 | 10 ft | 3 kts | 6° |
| 2026-05-08 02:14 | 49.19121 | -123.18428 | 9 ft | 3 kts | 22° |
| 2026-05-08 02:14 | 49.19106 | -123.18451 | 9 ft | 3 kts | 84° |
| 2026-05-08 02:14 | 49.19106 | -123.18463 | 9 ft | 0 kts | 109° |
| 2026-05-08 02:17 | 49.19104 | -123.18456 | 9 ft | 3 kts | 107° |
| 2026-05-08 02:17 | 49.19110 | -123.18373 | 18 ft | 11 kts | 73° |
| 2026-05-08 02:17 | 49.19118 | -123.18253 | 9 ft | 12 kts | 100° |
| 2026-05-08 02:18 | 49.19103 | -123.18134 | 9 ft | 11 kts | 100° |
| 2026-05-08 02:18 | 49.19060 | -123.18048 | 11 ft | 11 kts | 166° |
| 2026-05-08 02:18 | 49.18986 | -123.18059 | 9 ft | 11 kts | 189° |
| 2026-05-08 02:18 | 49.18917 | -123.18052 | 9 ft | 10 kts | 139° |
| 2026-05-08 02:19 | 49.18895 | -123.17929 | 9 ft | 15 kts | 100° |
| 2026-05-08 02:19 | 49.18874 | -123.17749 | 10 ft | 19 kts | 100° |
| 2026-05-08 02:19 | 49.18852 | -123.17558 | 9 ft | 18 kts | 99° |
| 2026-05-08 02:19 | 49.18832 | -123.17369 | 9 ft | 18 kts | 100° |
| 2026-05-08 02:20 | 49.18809 | -123.17188 | 9 ft | 17 kts | 100° |
| 2026-05-08 02:20 | 49.18790 | -123.17013 | 10 ft | 16 kts | 99° |
| 2026-05-08 02:20 | 49.18772 | -123.16844 | 9 ft | 16 kts | 99° |
| 2026-05-08 02:20 | 49.18755 | -123.16683 | 9 ft | 15 kts | 99° |
| 2026-05-08 02:21 | 49.18737 | -123.16527 | 9 ft | 15 kts | 100° |
| 2026-05-08 02:21 | 49.18718 | -123.16380 | 11 ft | 14 kts | 103° |
| 2026-05-08 02:21 | 49.18677 | -123.16252 | 9 ft | 13 kts | 131° |
| 2026-05-08 02:21 | 49.18632 | -123.16137 | 11 ft | 13 kts | 103° |
| 2026-05-08 02:22 | 49.18588 | -123.16038 | 9 ft | 1 kts | 167° |
| 2026-05-08 02:23 | 49.18539 | -123.16041 | 10 ft | 17 kts | 193° |
| 2026-05-08 02:23 | 49.18491 | -123.16257 | 10 ft | 48 kts | 281° |
| 2026-05-08 02:23 | 49.18614 | -123.17308 | 10 ft | 149 kts | 279° |
| 2026-05-08 02:23 | 49.18824 | -123.19196 | 424 ft | 205 kts | 278° |
| 2026-05-08 02:24 | 49.19099 | -123.21520 | 1178 ft | 237 kts | 279° |
| 2026-05-08 02:24 | 49.19405 | -123.24067 | 1924 ft | 245 kts | 279° |
| 2026-05-08 02:24 | 49.19674 | -123.26660 | 2558 ft | 251 kts | 278° |
| 2026-05-08 02:24 | 49.19926 | -123.29299 | 3175 ft | 250 kts | 278° |
| 2026-05-08 02:25 | 49.20170 | -123.31900 | 3798 ft | 252 kts | 278° |
| 2026-05-08 02:25 | 49.20422 | -123.34560 | 4430 ft | 254 kts | 279° |
| 2026-05-08 02:25 | 49.20725 | -123.37228 | 5070 ft | 256 kts | 286° |
| 2026-05-08 02:25 | 49.21617 | -123.39563 | 5676 ft | 259 kts | 315° |
| 2026-05-08 02:26 | 49.23160 | -123.40989 | 6357 ft | 264 kts | 341° |
| 2026-05-08 02:26 | 49.24938 | -123.41810 | 7029 ft | 270 kts | 345° |
| 2026-05-08 02:26 | 49.26772 | -123.42566 | 7692 ft | 276 kts | 345° |
| 2026-05-08 02:26 | 49.28650 | -123.43310 | 8336 ft | 280 kts | 348° |
| 2026-05-08 02:27 | 49.30601 | -123.43277 | 8999 ft | 286 kts | 18° |
| 2026-05-08 02:27 | 49.32248 | -123.41699 | 9686 ft | 288 kts | 49° |
| 2026-05-08 02:27 | 49.33454 | -123.39191 | 10385 ft | 298 kts | 58° |
| 2026-05-08 02:27 | 49.34597 | -123.36467 | 11068 ft | 310 kts | 58° |
| 2026-05-08 02:28 | 49.35854 | -123.33689 | 11736 ft | 322 kts | 54° |
| 2026-05-08 02:28 | 49.37250 | -123.30928 | 12421 ft | 333 kts | 51° |
| 2026-05-08 02:28 | 49.38772 | -123.28176 | 13131 ft | 343 kts | 49° |
| 2026-05-08 02:28 | 49.40391 | -123.25427 | 13852 ft | 352 kts | 47° |
| 2026-05-08 02:29 | 49.42088 | -123.22660 | 14495 ft | 360 kts | 46° |
| 2026-05-08 02:29 | 49.43849 | -123.19860 | 15144 ft | 368 kts | 46° |
| 2026-05-08 02:29 | 49.45660 | -123.17025 | 15816 ft | 375 kts | 45° |
| 2026-05-08 02:29 | 49.47512 | -123.14147 | 16481 ft | 381 kts | 45° |
| 2026-05-08 02:30 | 49.49188 | -123.11549 | 17094 ft | 386 kts | 45° |
| 2026-05-08 02:30 | 49.51097 | -123.08592 | 17798 ft | 391 kts | 45° |
| 2026-05-08 02:30 | 49.53023 | -123.05607 | 18490 ft | 395 kts | 45° |
| 2026-05-08 02:30 | 49.54952 | -123.02615 | 19100 ft | 399 kts | 45° |
| 2026-05-08 02:31 | 49.56928 | -122.99544 | 19753 ft | 402 kts | 45° |
| 2026-05-08 02:31 | 49.58903 | -122.96471 | 20395 ft | 405 kts | 45° |
| 2026-05-08 02:31 | 49.60892 | -122.93371 | 21057 ft | 408 kts | 44° |
| 2026-05-08 02:31 | 49.62890 | -122.90255 | 21737 ft | 410 kts | 44° |
| 2026-05-08 02:32 | 49.64867 | -122.87166 | 22428 ft | 411 kts | 44° |
| 2026-05-08 02:32 | 49.66866 | -122.83996 | 23121 ft | 413 kts | 44° |
| 2026-05-08 02:32 | 49.68877 | -122.80791 | 23636 ft | 419 kts | 44° |
| 2026-05-08 02:32 | 49.70919 | -122.77552 | 24103 ft | 423 kts | 44° |
| 2026-05-08 02:33 | 49.72968 | -122.74323 | 24548 ft | 427 kts | 43° |
| 2026-05-08 02:33 | 49.75069 | -122.71028 | 25019 ft | 430 kts | 43° |
| 2026-05-08 02:33 | 49.77135 | -122.67791 | 25375 ft | 437 kts | 43° |
| 2026-05-08 02:33 | 49.79285 | -122.64422 | 25734 ft | 443 kts | 43° |
| 2026-05-08 02:34 | 49.81459 | -122.61008 | 26090 ft | 448 kts | 43° |
| 2026-05-08 02:34 | 49.83626 | -122.57600 | 26440 ft | 452 kts | 43° |
| 2026-05-08 02:34 | 49.85838 | -122.54119 | 26798 ft | 456 kts | 43° |
| 2026-05-08 02:34 | 49.88093 | -122.50594 | 26885 ft | 465 kts | 39° |
| 2026-05-08 02:35 | 49.90811 | -122.47914 | 26943 ft | 465 kts | 19° |
| 2026-05-08 02:35 | 49.93873 | -122.46253 | 27009 ft | 469 kts | 10° |
| 2026-05-08 02:35 | 49.97087 | -122.45516 | 27052 ft | 467 kts | 1° |
| 2026-05-08 02:35 | 50.00333 | -122.45251 | 27015 ft | 468 kts | 358° |
| 2026-05-08 02:36 | 50.03581 | -122.45121 | 27015 ft | 467 kts | 358° |
| 2026-05-08 02:36 | 50.06834 | -122.44951 | 27005 ft | 467 kts | 359° |
| 2026-05-08 02:36 | 50.10078 | -122.44633 | 27014 ft | 468 kts | 1° |
| 2026-05-08 02:36 | 50.13324 | -122.44151 | 27001 ft | 469 kts | 2° |
| 2026-05-08 02:37 | 50.16524 | -122.43634 | 26996 ft | 469 kts | 2° |
| 2026-05-08 02:37 | 50.19767 | -122.43131 | 27005 ft | 468 kts | 2° |
| 2026-05-08 02:37 | 50.23008 | -122.42668 | 26989 ft | 468 kts | 1° |
| 2026-05-08 02:37 | 50.26249 | -122.42240 | 26997 ft | 467 kts | 1° |
| 2026-05-08 02:38 | 50.29482 | -122.41836 | 27004 ft | 467 kts | 1° |
| 2026-05-08 02:38 | 50.32727 | -122.41442 | 27017 ft | 465 kts | 1° |
| 2026-05-08 02:38 | 50.35955 | -122.41052 | 27011 ft | 466 kts | 1° |
| 2026-05-08 02:38 | 50.39188 | -122.40660 | 26993 ft | 466 kts | 1° |
| 2026-05-08 02:39 | 50.42372 | -122.40270 | 27004 ft | 465 kts | 1° |
| 2026-05-08 02:39 | 50.45600 | -122.39872 | 27010 ft | 465 kts | 1° |
| 2026-05-08 02:39 | 50.48820 | -122.39474 | 27020 ft | 464 kts | 1° |
| 2026-05-08 02:39 | 50.52045 | -122.39074 | 27007 ft | 465 kts | 1° |
| 2026-05-08 02:40 | 50.55267 | -122.38673 | 27003 ft | 465 kts | 1° |
| 2026-05-08 02:40 | 50.58499 | -122.38271 | 27011 ft | 465 kts | 1° |
| 2026-05-08 02:40 | 50.61725 | -122.37870 | 27009 ft | 466 kts | 1° |
| 2026-05-08 02:40 | 50.64958 | -122.37467 | 27009 ft | 466 kts | 1° |
| 2026-05-08 02:41 | 50.68190 | -122.37064 | 27005 ft | 466 kts | 0° |
| 2026-05-08 02:41 | 50.71416 | -122.36662 | 27003 ft | 464 kts | 0° |
| 2026-05-08 02:41 | 50.74637 | -122.36257 | 27007 ft | 464 kts | 1° |
| 2026-05-08 02:41 | 50.77811 | -122.35858 | 27017 ft | 464 kts | 0° |
| 2026-05-08 02:42 | 50.81031 | -122.35452 | 27015 ft | 464 kts | 0° |
| 2026-05-08 02:42 | 50.84254 | -122.35046 | 27018 ft | 465 kts | 1° |
| 2026-05-08 02:42 | 50.87477 | -122.34639 | 27010 ft | 465 kts | 1° |
| 2026-05-08 02:42 | 50.90701 | -122.34231 | 27017 ft | 465 kts | 0° |
| 2026-05-08 02:43 | 50.93928 | -122.33823 | 27000 ft | 465 kts | 1° |
| 2026-05-08 02:43 | 50.97156 | -122.33414 | 27014 ft | 465 kts | 0° |
| 2026-05-08 02:43 | 51.00381 | -122.33004 | 26996 ft | 465 kts | 0° |
| 2026-05-08 02:43 | 51.03604 | -122.32594 | 27018 ft | 465 kts | 0° |
| 2026-05-08 02:44 | 51.06827 | -122.32183 | 27003 ft | 465 kts | 0° |
| 2026-05-08 02:44 | 51.10006 | -122.31778 | 26997 ft | 465 kts | 0° |
| 2026-05-08 02:44 | 51.13227 | -122.31366 | 27024 ft | 465 kts | 0° |
| 2026-05-08 02:44 | 51.16455 | -122.30954 | 27008 ft | 465 kts | 0° |
| 2026-05-08 02:45 | 51.19680 | -122.30541 | 27006 ft | 465 kts | 0° |
| 2026-05-08 02:45 | 51.22900 | -122.30128 | 27008 ft | 465 kts | 0° |
| 2026-05-08 02:45 | 51.26123 | -122.29714 | 27007 ft | 465 kts | 0° |
| 2026-05-08 02:45 | 51.28259 | -122.29440 | 27003 ft | 464 kts | 0° |
| 2026-05-08 02:46 | 51.32566 | -122.28886 | 27012 ft | 464 kts | 0° |
| 2026-05-08 02:46 | 51.34694 | -122.28611 | 27007 ft | 464 kts | 0° |
| 2026-05-08 02:46 | 51.38964 | -122.28059 | 27015 ft | 464 kts | 0° |
| 2026-05-08 02:46 | 51.42186 | -122.27641 | 27008 ft | 465 kts | 0° |
| 2026-05-08 02:47 | 51.45412 | -122.27224 | 27007 ft | 465 kts | 0° |
| 2026-05-08 02:47 | 51.48638 | -122.26806 | 27003 ft | 465 kts | 0° |
| 2026-05-08 02:47 | 51.51863 | -122.26388 | 27008 ft | 465 kts | 0° |
| 2026-05-08 02:47 | 51.53996 | -122.26110 | 27014 ft | 465 kts | 0° |
| 2026-05-08 02:48 | 51.57223 | -122.25689 | 27011 ft | 465 kts | 0° |
| 2026-05-08 02:48 | 51.60450 | -122.25269 | 27005 ft | 465 kts | 0° |
| 2026-05-08 02:48 | 51.63676 | -122.24848 | 27008 ft | 465 kts | 0° |
| 2026-05-08 02:48 | 51.66902 | -122.24426 | 27008 ft | 465 kts | 0° |
| 2026-05-08 02:49 | 51.71171 | -122.23867 | 27012 ft | 465 kts | 0° |
| 2026-05-08 02:49 | 51.73353 | -122.23581 | 27009 ft | 465 kts | 0° |
| 2026-05-08 02:49 | 51.76578 | -122.23158 | 27007 ft | 465 kts | 0° |
| 2026-05-08 02:49 | 51.79760 | -122.22739 | 27005 ft | 465 kts | 0° |
| 2026-05-08 02:50 | 51.82980 | -122.22315 | 27016 ft | 465 kts | 0° |
| 2026-05-08 02:50 | 51.86204 | -122.21890 | 27013 ft | 465 kts | 0° |
| 2026-05-08 02:50 | 51.89427 | -122.21464 | 27009 ft | 465 kts | 360° |
| 2026-05-08 02:50 | 51.92654 | -122.21038 | 27004 ft | 465 kts | 360° |
| 2026-05-08 02:51 | 51.95878 | -122.20611 | 27003 ft | 465 kts | 360° |
| 2026-05-08 02:51 | 51.99102 | -122.20183 | 27000 ft | 465 kts | 360° |
| 2026-05-08 02:51 | 52.02323 | -122.19755 | 27004 ft | 465 kts | 360° |
| 2026-05-08 02:51 | 52.05547 | -122.19326 | 26999 ft | 465 kts | 360° |
| 2026-05-08 02:52 | 52.08769 | -122.18897 | 26993 ft | 465 kts | 360° |
| 2026-05-08 02:52 | 52.11947 | -122.18546 | 26972 ft | 463 kts | 357° |
| 2026-05-08 02:52 | 52.15143 | -122.18619 | 26453 ft | 453 kts | 351° |
| 2026-05-08 02:52 | 52.18209 | -122.19262 | 25962 ft | 438 kts | 344° |
| 2026-05-08 02:53 | 52.21150 | -122.20339 | 25481 ft | 428 kts | 341° |
| 2026-05-08 02:53 | 52.24001 | -122.21513 | 25096 ft | 418 kts | 341° |
| 2026-05-08 02:53 | 52.26810 | -122.22608 | 24717 ft | 414 kts | 343° |
| 2026-05-08 02:53 | 52.29638 | -122.23599 | 24339 ft | 418 kts | 344° |
| 2026-05-08 02:54 | 52.32512 | -122.24499 | 23932 ft | 420 kts | 346° |
| 2026-05-08 02:54 | 52.35384 | -122.25317 | 23506 ft | 417 kts | 346° |
| 2026-05-08 02:54 | 52.38240 | -122.26081 | 23035 ft | 415 kts | 347° |
| 2026-05-08 02:54 | 52.41079 | -122.26819 | 22554 ft | 412 kts | 347° |
| 2026-05-08 02:55 | 52.43869 | -122.27537 | 22083 ft | 410 kts | 347° |
| 2026-05-08 02:55 | 52.49470 | -122.28985 | 21169 ft | 405 kts | 347° |
| 2026-05-08 02:55 | 52.52245 | -122.29708 | 20708 ft | 403 kts | 347° |
| 2026-05-08 02:56 | 52.55003 | -122.30430 | 20284 ft | 400 kts | 347° |
| 2026-05-08 02:56 | 52.57745 | -122.31149 | 19844 ft | 398 kts | 347° |
| 2026-05-08 02:56 | 52.60468 | -122.31866 | 19415 ft | 395 kts | 347° |
| 2026-05-08 02:56 | 52.63174 | -122.32579 | 18995 ft | 393 kts | 348° |
| 2026-05-08 02:57 | 52.65829 | -122.33280 | 18583 ft | 390 kts | 348° |
| 2026-05-08 02:57 | 52.68504 | -122.33987 | 18148 ft | 388 kts | 348° |
| 2026-05-08 02:57 | 52.71149 | -122.34687 | 17657 ft | 383 kts | 348° |
| 2026-05-08 02:57 | 52.73754 | -122.35376 | 17180 ft | 376 kts | 348° |
| 2026-05-08 02:58 | 52.76313 | -122.36054 | 16712 ft | 369 kts | 348° |
| 2026-05-08 02:58 | 52.78827 | -122.36721 | 16248 ft | 363 kts | 348° |
| 2026-05-08 02:58 | 52.81307 | -122.37380 | 15798 ft | 360 kts | 348° |
| 2026-05-08 02:58 | 52.83771 | -122.38037 | 15348 ft | 358 kts | 348° |
| 2026-05-08 02:59 | 52.86214 | -122.38689 | 14910 ft | 353 kts | 348° |
| 2026-05-08 02:59 | 52.88624 | -122.39332 | 14489 ft | 348 kts | 348° |
| 2026-05-08 02:59 | 52.90961 | -122.39956 | 14083 ft | 343 kts | 348° |
| 2026-05-08 02:59 | 52.93297 | -122.40579 | 13686 ft | 338 kts | 348° |
| 2026-05-08 03:00 | 52.95598 | -122.41195 | 13281 ft | 332 kts | 348° |
| 2026-05-08 03:00 | 52.97860 | -122.41799 | 12907 ft | 326 kts | 348° |
| 2026-05-08 03:00 | 53.00080 | -122.42393 | 12549 ft | 321 kts | 348° |
| 2026-05-08 03:00 | 53.02277 | -122.42983 | 12181 ft | 319 kts | 348° |
| 2026-05-08 03:01 | 53.04452 | -122.43568 | 11832 ft | 315 kts | 348° |
| 2026-05-08 03:01 | 53.06604 | -122.44148 | 11479 ft | 311 kts | 348° |
| 2026-05-08 03:01 | 53.08703 | -122.44713 | 11126 ft | 308 kts | 348° |
| 2026-05-08 03:01 | 53.10806 | -122.45280 | 10782 ft | 305 kts | 348° |
| 2026-05-08 03:02 | 53.12890 | -122.45843 | 10440 ft | 302 kts | 348° |
| 2026-05-08 03:02 | 53.14952 | -122.46400 | 10108 ft | 299 kts | 347° |
| 2026-05-08 03:02 | 53.16957 | -122.46942 | 9796 ft | 297 kts | 347° |
| 2026-05-08 03:02 | 53.18989 | -122.47493 | 9435 ft | 295 kts | 347° |
| 2026-05-08 03:03 | 53.21008 | -122.48041 | 9084 ft | 293 kts | 347° |
| 2026-05-08 03:03 | 53.22978 | -122.48574 | 9041 ft | 281 kts | 347° |
| 2026-05-08 03:03 | 53.24883 | -122.49089 | 9045 ft | 272 kts | 347° |
| 2026-05-08 03:03 | 53.26699 | -122.49580 | 9005 ft | 266 kts | 347° |
| 2026-05-08 03:04 | 53.28530 | -122.50079 | 8766 ft | 267 kts | 347° |
| 2026-05-08 03:04 | 53.30340 | -122.50574 | 8550 ft | 264 kts | 347° |
| 2026-05-08 03:04 | 53.32149 | -122.51069 | 8346 ft | 262 kts | 347° |
| 2026-05-08 03:04 | 53.33949 | -122.51560 | 8143 ft | 262 kts | 348° |
| 2026-05-08 03:05 | 53.35748 | -122.52052 | 7947 ft | 261 kts | 348° |
| 2026-05-08 03:05 | 53.37527 | -122.52539 | 7772 ft | 257 kts | 348° |
| 2026-05-08 03:05 | 53.39285 | -122.53019 | 7570 ft | 254 kts | 348° |
| 2026-05-08 03:05 | 53.40987 | -122.53484 | 7385 ft | 248 kts | 348° |
| 2026-05-08 03:06 | 53.42676 | -122.53946 | 7185 ft | 245 kts | 348° |
| 2026-05-08 03:06 | 53.44362 | -122.54409 | 7003 ft | 247 kts | 348° |
| 2026-05-08 03:06 | 53.46059 | -122.54874 | 6811 ft | 247 kts | 349° |
| 2026-05-08 03:06 | 53.47740 | -122.55337 | 6613 ft | 243 kts | 349° |
| 2026-05-08 03:07 | 53.49396 | -122.55792 | 6405 ft | 240 kts | 349° |
| 2026-05-08 03:07 | 53.51034 | -122.56241 | 6183 ft | 237 kts | 349° |
| 2026-05-08 03:07 | 53.52653 | -122.56685 | 5967 ft | 234 kts | 349° |
| 2026-05-08 03:07 | 53.54228 | -122.57118 | 5740 ft | 224 kts | 349° |
| 2026-05-08 03:08 | 53.55724 | -122.57529 | 5523 ft | 212 kts | 349° |
| 2026-05-08 03:08 | 53.57127 | -122.57916 | 5332 ft | 201 kts | 349° |
| 2026-05-08 03:08 | 53.58465 | -122.58284 | 5248 ft | 192 kts | 349° |
| 2026-05-08 03:08 | 53.59779 | -122.58647 | 5248 ft | 191 kts | 349° |
| 2026-05-08 03:09 | 53.61073 | -122.59006 | 5251 ft | 187 kts | 348° |
| 2026-05-08 03:09 | 53.62332 | -122.59355 | 5241 ft | 175 kts | 349° |
| 2026-05-08 03:09 | 53.63481 | -122.59673 | 5223 ft | 162 kts | 349° |
| 2026-05-08 03:09 | 53.64612 | -122.59989 | 5233 ft | 167 kts | 349° |
| 2026-05-08 03:10 | 53.65767 | -122.60311 | 5234 ft | 169 kts | 348° |
| 2026-05-08 03:10 | 53.66900 | -122.60626 | 5204 ft | 161 kts | 348° |
| 2026-05-08 03:10 | 53.67976 | -122.60924 | 5195 ft | 158 kts | 348° |
| 2026-05-08 03:10 | 53.69070 | -122.61230 | 5029 ft | 161 kts | 348° |
| 2026-05-08 03:11 | 53.70154 | -122.61532 | 4826 ft | 153 kts | 349° |
| 2026-05-08 03:11 | 53.71178 | -122.61819 | 4599 ft | 146 kts | 348° |
| 2026-05-08 03:11 | 53.72158 | -122.62093 | 4388 ft | 142 kts | 349° |
| 2026-05-08 03:11 | 53.73130 | -122.62364 | 4181 ft | 142 kts | 348° |
| 2026-05-08 03:12 | 53.74101 | -122.62635 | 3997 ft | 142 kts | 348° |
| 2026-05-08 03:12 | 53.75082 | -122.62909 | 3856 ft | 144 kts | 348° |
| 2026-05-08 03:12 | 53.76069 | -122.63185 | 3809 ft | 145 kts | 348° |
| 2026-05-08 03:12 | 53.77025 | -122.63452 | 3824 ft | 143 kts | 348° |
| 2026-05-08 03:13 | 53.77989 | -122.63722 | 3800 ft | 139 kts | 348° |
| 2026-05-08 03:13 | 53.78956 | -122.63992 | 3763 ft | 143 kts | 348° |
| 2026-05-08 03:13 | 53.79958 | -122.64251 | 3685 ft | 146 kts | 349° |
| 2026-05-08 03:13 | 53.80948 | -122.64523 | 3496 ft | 143 kts | 347° |
| 2026-05-08 03:14 | 53.81929 | -122.64768 | 3308 ft | 140 kts | 349° |
| 2026-05-08 03:14 | 53.82891 | -122.65086 | 3093 ft | 144 kts | 347° |
| 2026-05-08 03:14 | 53.83894 | -122.65387 | 2863 ft | 148 kts | 349° |
| 2026-05-08 03:14 | 53.84903 | -122.65668 | 2661 ft | 144 kts | 349° |
| 2026-05-08 03:15 | 53.85861 | -122.65926 | 2475 ft | 136 kts | 350° |
| 2026-05-08 03:15 | 53.86769 | -122.66201 | 2282 ft | 135 kts | 352° |
| 2026-05-08 03:15 | 53.87664 | -122.66442 | 2215 ft | 118 kts | 351° |
| 2026-05-08 03:15 | 53.88321 | -122.66624 | 2223 ft | 72 kts | 351° |
| 2026-05-08 03:16 | 53.88615 | -122.66710 | 2227 ft | 15 kts | 348° |
| 2026-05-08 03:16 | 53.88655 | -122.66833 | 2227 ft | 14 kts | 266° |
| 2026-05-08 03:16 | 53.88641 | -122.66989 | 2231 ft | 13 kts | 261° |
| 2026-05-08 03:16 | 53.88627 | -122.67139 | 2236 ft | 13 kts | 260° |
| 2026-05-08 03:17 | 53.88612 | -122.67285 | 2241 ft | 12 kts | 261° |
| 2026-05-08 03:17 | 53.88598 | -122.67425 | 2245 ft | 12 kts | 256° |
| 2026-05-08 03:17 | 53.88544 | -122.67527 | 2245 ft | 12 kts | 211° |
| 2026-05-08 03:17 | 53.88503 | -122.67568 | 2244 ft | 3 kts | 211° |
| 2026-05-08 03:18 | 53.88477 | -122.67595 | 2243 ft | 6 kts | 211° |
| 2026-05-08 03:18 | 53.88435 | -122.67632 | 2242 ft | 7 kts | 192° |
| 2026-05-08 03:18 | 53.88397 | -122.67580 | 2241 ft | 8 kts | 120° |
| 2026-05-08 03:18 | 53.88396 | -122.67544 | 2241 ft | 0 kts | 67° |